Forside
METAR-TAF:

METAR-TAF

Lufthavne :

Daegu, Sydkorea

Breddekreds: 35-54N, længdekreds: 128-39E, højde: 35 m

Aktuelle vejr

Denne rapport blev lavet for 28 minutter siden, kl. 18:00 UTC
Vind 1 kt fra vestsydvest
Temperatur 7°C
Fugtighed 53%
Tryk 1018 hPa
Sigt 10 km eller mere
ingen skyer under 1500m og ingen cumulonimbus

METAR: RKTN 031800Z 25001KT CAVOK 07/M02 Q1018

Tid: 03:28 (18:28 UTC)

Vejrudsigter

Denne rapport blev lavet for 1 time og 28 minutter siden, kl. 17:00 UTC
Foreløbig gælder fra 03 på 18 UTC til 04 på 24 UTC
Vind 6 kt fra nordvest
Sigt 10 km eller mere
Spredte skyer i en højde af 4000 ft

TAF: RKTN 031700Z 0318/0424 31006KT 9999 SCT040 TN04/0321Z TX19/0406Z

Vejrobservationer og prognoser fra mere end 4000 lufthavne (METAR og TAF).

De gule og røde prikker repræsenterer de meteorologiske stationer.

Flyt musen over at se navnet på stationen.

Så klik over at se vejr observationer og prognoser.

At skifte det kort: Klik på de grønne knapper med et sort kors for at zoome ind; på den grønne knap med en bindestreg for at zoome ud; eller på de grønne pile for tilstødende kort.


METAR-TAF: